Albuquerque, NM (87110)

2:50 AM MDT on July 31, 2016 (GMT -0600)
La Resolana | | Change Station

Elev 5225 ft 35.09 °N, 106.60 °W | Updated 3 seconds ago

Overcast
Overcast
66.6 °F
Feels Like 66.6 °F
N
0.0
Wind Variable Wind from North
Gusts 0.0 mph

Today
High -- | Low -- °F
--% Chance of Precip.
Yesterday
High -- | Low -- °F
Precip. -- in
Pressure 29.90 in
Visibility 10.0 miles
Clouds Few 6500 ft
Mostly Cloudy 8000 ft
Mostly Cloudy 13000 ft
Overcast 25000 ft
Dew Point 56 °F
Humidity 70%
Rainfall 0.00 in
Snow Depth Not available.
6:15 AM 8:09 PM
Waning Crescent, 8% visible
METAR KABQ 310752Z 36005KT 10SM FEW065 BKN080 BKN130 OVC250 20/14 A3016 RMK AO2 SLP123 CB DSNT N T02000139 $
Pressure 29.90 in
Visibility 10.0 miles
Clouds Few 6500 ft
Mostly Cloudy 8000 ft
Mostly Cloudy 13000 ft
Overcast 25000 ft
Dew Point 56 °F
Humidity 70%
Rainfall 0.00 in
Snow Depth Not available.
6:15 AM 8:09 PM
Waning Crescent, 8% visible
METAR KABQ 310752Z 36005KT 10SM FEW065 BKN080 BKN130 OVC250 20/14 A3016 RMK AO2 SLP123 CB DSNT N T02000139 $

10-Day Weather Forecast

Almanac

Astronomy

Jul. 31, 2016 Rise Set
Actual Time
Civil Twilight
Nautical Twilight
Astronomical Twilight
Moon
Length of Visible Light
Length of Day
Tomorrow will be .
, % of the Moon is Illuminated

Today's Extremes

State Highs State Lows

Community

WunderPhotos

Upload Photos

1,928,768 photos uploaded!

WunderBlog® & News

Nearby

Air Quality

  Air Quality AQ Index Pollutant
Not available.

Snow Depth

Station Depth Elevation

Earthquake Activity

City Distance Mag. Time & Date
Minimum magnitude displayed is 2.5.

Coastal Water Temperatures

Place Temperature

Stations

Nearby Weather Stations

Station Location Temp. Windchill Dew Point Humidity Wind Precip. Elev Updated Type
                   

Watches & Warnings

There are currently no watches in effect.